sensor_id;sensor_type;location;lat;lon;timestamp;P1;durP1;ratioP1;P2;durP2;ratioP2
84303;SDS011;74469;52.520;16.998;2024-01-11T00:00:06;9.50;;;3.00;;
84303;SDS011;74469;52.520;16.998;2024-01-11T00:05:09;6.40;;;3.40;;
84303;SDS011;74469;52.520;16.998;2024-01-11T00:10:13;4.20;;;1.90;;
84303;SDS011;74469;52.520;16.998;2024-01-11T00:15:15;7.10;;;2.80;;
84303;SDS011;74469;52.520;16.998;2024-01-11T00:20:18;5.50;;;3.10;;
84303;SDS011;74469;52.520;16.998;2024-01-11T00:25:21;5.80;;;2.50;;
84303;SDS011;74469;52.520;16.998;2024-01-11T00:30:24;10.90;;;4.70;;
84303;SDS011;74469;52.520;16.998;2024-01-11T00:35:26;9.50;;;3.50;;
84303;SDS011;74469;52.520;16.998;2024-01-11T00:40:29;5.80;;;2.30;;
84303;SDS011;74469;52.520;16.998;2024-01-11T00:45:32;7.10;;;3.60;;
84303;SDS011;74469;52.520;16.998;2024-01-11T00:50:34;5.90;;;3.00;;
84303;SDS011;74469;52.520;16.998;2024-01-11T00:55:37;6.00;;;2.80;;
84303;SDS011;74469;52.520;16.998;2024-01-11T01:00:40;4.50;;;2.30;;
84303;SDS011;74469;52.520;16.998;2024-01-11T01:05:42;6.10;;;1.80;;
84303;SDS011;74469;52.520;16.998;2024-01-11T01:10:45;5.10;;;2.40;;
84303;SDS011;74469;52.520;16.998;2024-01-11T01:15:48;6.00;;;1.70;;
84303;SDS011;74469;52.520;16.998;2024-01-11T01:20:51;5.70;;;3.00;;
84303;SDS011;74469;52.520;16.998;2024-01-11T01:25:53;6.80;;;2.70;;
84303;SDS011;74469;52.520;16.998;2024-01-11T01:30:56;6.10;;;2.80;;
84303;SDS011;74469;52.520;16.998;2024-01-11T01:35:59;5.70;;;1.70;;
84303;SDS011;74469;52.520;16.998;2024-01-11T01:41:01;1.20;;;0.50;;
84303;SDS011;74469;52.520;16.998;2024-01-11T01:46:05;10.00;;;2.40;;
84303;SDS011;74469;52.520;16.998;2024-01-11T01:51:08;11.10;;;2.80;;
84303;SDS011;74469;52.520;16.998;2024-01-11T01:56:10;6.70;;;2.80;;
84303;SDS011;74469;52.520;16.998;2024-01-11T02:01:14;7.60;;;3.70;;
84303;SDS011;74469;52.520;16.998;2024-01-11T02:06:17;5.80;;;2.90;;
84303;SDS011;74469;52.520;16.998;2024-01-11T02:11:20;4.40;;;2.60;;
84303;SDS011;74469;52.520;16.998;2024-01-11T02:16:25;3.40;;;1.20;;
84303;SDS011;74469;52.520;16.998;2024-01-11T02:21:28;2.50;;;1.10;;
84303;SDS011;74469;52.520;16.998;2024-01-11T02:26:31;2.20;;;1.50;;
84303;SDS011;74469;52.520;16.998;2024-01-11T02:31:34;4.80;;;2.40;;
84303;SDS011;74469;52.520;16.998;2024-01-11T02:36:36;4.10;;;2.20;;
84303;SDS011;74469;52.520;16.998;2024-01-11T02:41:39;4.80;;;1.70;;
84303;SDS011;74469;52.520;16.998;2024-01-11T02:46:42;2.30;;;1.10;;
84303;SDS011;74469;52.520;16.998;2024-01-11T02:51:44;2.70;;;1.20;;
84303;SDS011;74469;52.520;16.998;2024-01-11T02:56:47;6.10;;;2.50;;
84303;SDS011;74469;52.520;16.998;2024-01-11T03:01:50;3.50;;;2.80;;
84303;SDS011;74469;52.520;16.998;2024-01-11T03:12:35;5.90;;;1.90;;
84303;SDS011;74469;52.520;16.998;2024-01-11T03:17:37;9.30;;;2.90;;
84303;SDS011;74469;52.520;16.998;2024-01-11T03:22:45;7.70;;;3.20;;
84303;SDS011;74469;52.520;16.998;2024-01-11T03:27:49;10.50;;;3.10;;
84303;SDS011;74469;52.520;16.998;2024-01-11T03:32:54;4.00;;;2.00;;
84303;SDS011;74469;52.520;16.998;2024-01-11T03:37:57;3.30;;;1.50;;
84303;SDS011;74469;52.520;16.998;2024-01-11T03:43:00;7.50;;;2.70;;
84303;SDS011;74469;52.520;16.998;2024-01-11T03:48:03;7.30;;;2.60;;
84303;SDS011;74469;52.520;16.998;2024-01-11T03:53:06;6.20;;;2.80;;
84303;SDS011;74469;52.520;16.998;2024-01-11T03:58:08;4.50;;;1.70;;
84303;SDS011;74469;52.520;16.998;2024-01-11T04:03:11;7.20;;;1.30;;
84303;SDS011;74469;52.520;16.998;2024-01-11T04:08:14;5.60;;;2.20;;
84303;SDS011;74469;52.520;16.998;2024-01-11T04:13:16;4.90;;;3.00;;
84303;SDS011;74469;52.520;16.998;2024-01-11T04:18:19;3.20;;;1.50;;
84303;SDS011;74469;52.520;16.998;2024-01-11T04:23:22;4.50;;;2.60;;
84303;SDS011;74469;52.520;16.998;2024-01-11T04:28:24;5.30;;;3.30;;
84303;SDS011;74469;52.520;16.998;2024-01-11T04:33:27;4.90;;;1.60;;
84303;SDS011;74469;52.520;16.998;2024-01-11T04:38:30;7.90;;;2.90;;
84303;SDS011;74469;52.520;16.998;2024-01-11T04:43:32;5.80;;;2.30;;
84303;SDS011;74469;52.520;16.998;2024-01-11T04:48:35;5.10;;;2.10;;
84303;SDS011;74469;52.520;16.998;2024-01-11T04:53:38;2.70;;;1.80;;
84303;SDS011;74469;52.520;16.998;2024-01-11T04:58:42;6.40;;;2.30;;
84303;SDS011;74469;52.520;16.998;2024-01-11T05:03:46;8.60;;;3.00;;
84303;SDS011;74469;52.520;16.998;2024-01-11T05:08:49;0.90;;;0.80;;
84303;SDS011;74469;52.520;16.998;2024-01-11T05:13:54;6.50;;;2.90;;
84303;SDS011;74469;52.520;16.998;2024-01-11T05:18:57;3.20;;;2.00;;
84303;SDS011;74469;52.520;16.998;2024-01-11T05:24:00;12.90;;;4.80;;
84303;SDS011;74469;52.520;16.998;2024-01-11T05:29:03;6.90;;;2.50;;
84303;SDS011;74469;52.520;16.998;2024-01-11T05:34:09;8.10;;;4.00;;
84303;SDS011;74469;52.520;16.998;2024-01-11T05:39:14;6.40;;;2.00;;
84303;SDS011;74469;52.520;16.998;2024-01-11T05:44:17;8.90;;;2.70;;
84303;SDS011;74469;52.520;16.998;2024-01-11T05:49:19;17.20;;;5.20;;
84303;SDS011;74469;52.520;16.998;2024-01-11T05:54:22;6.10;;;2.70;;
84303;SDS011;74469;52.520;16.998;2024-01-11T05:59:25;11.60;;;5.10;;
84303;SDS011;74469;52.520;16.998;2024-01-11T06:04:28;10.20;;;3.30;;
84303;SDS011;74469;52.520;16.998;2024-01-11T06:09:32;12.90;;;4.60;;
84303;SDS011;74469;52.520;16.998;2024-01-11T06:14:35;11.60;;;5.50;;
84303;SDS011;74469;52.520;16.998;2024-01-11T06:19:38;14.00;;;4.20;;
84303;SDS011;74469;52.520;16.998;2024-01-11T06:24:40;5.00;;;3.10;;
84303;SDS011;74469;52.520;16.998;2024-01-11T06:29:43;7.70;;;4.00;;
84303;SDS011;74469;52.520;16.998;2024-01-11T06:34:46;2.50;;;2.00;;
84303;SDS011;74469;52.520;16.998;2024-01-11T06:39:50;11.00;;;3.50;;
84303;SDS011;74469;52.520;16.998;2024-01-11T06:44:52;10.20;;;4.40;;
84303;SDS011;74469;52.520;16.998;2024-01-11T06:49:55;9.40;;;2.60;;
84303;SDS011;74469;52.520;16.998;2024-01-11T06:54:58;11.30;;;5.20;;
84303;SDS011;74469;52.520;16.998;2024-01-11T07:00:01;12.80;;;4.70;;
84303;SDS011;74469;52.520;16.998;2024-01-11T07:05:04;6.20;;;3.00;;
84303;SDS011;74469;52.520;16.998;2024-01-11T07:10:07;7.20;;;2.90;;
84303;SDS011;74469;52.520;16.998;2024-01-11T07:15:11;10.30;;;3.70;;
84303;SDS011;74469;52.520;16.998;2024-01-11T07:20:15;7.20;;;2.50;;
84303;SDS011;74469;52.520;16.998;2024-01-11T07:25:24;8.10;;;3.10;;
84303;SDS011;74469;52.520;16.998;2024-01-11T07:30:27;2.00;;;1.30;;
84303;SDS011;74469;52.520;16.998;2024-01-11T07:35:30;11.70;;;3.30;;
84303;SDS011;74469;52.520;16.998;2024-01-11T07:40:33;7.50;;;3.70;;
84303;SDS011;74469;52.520;16.998;2024-01-11T07:45:37;10.70;;;3.70;;
84303;SDS011;74469;52.520;16.998;2024-01-11T07:50:39;7.90;;;2.40;;
84303;SDS011;74469;52.520;16.998;2024-01-11T07:55:42;15.00;;;5.00;;
84303;SDS011;74469;52.520;16.998;2024-01-11T08:00:46;14.00;;;5.30;;
84303;SDS011;74469;52.520;16.998;2024-01-11T08:05:50;9.40;;;4.00;;
84303;SDS011;74469;52.520;16.998;2024-01-11T08:10:53;12.20;;;5.40;;
84303;SDS011;74469;52.520;16.998;2024-01-11T08:15:55;8.20;;;4.10;;
84303;SDS011;74469;52.520;16.998;2024-01-11T08:21:00;9.60;;;3.20;;
84303;SDS011;74469;52.520;16.998;2024-01-11T08:26:02;10.00;;;4.60;;
84303;SDS011;74469;52.520;16.998;2024-01-11T08:31:06;3.20;;;2.00;;
84303;SDS011;74469;52.520;16.998;2024-01-11T08:36:09;9.10;;;3.30;;
84303;SDS011;74469;52.520;16.998;2024-01-11T08:41:13;10.10;;;4.20;;
84303;SDS011;74469;52.520;16.998;2024-01-11T08:46:23;11.30;;;2.50;;
84303;SDS011;74469;52.520;16.998;2024-01-11T08:51:29;11.30;;;4.30;;
84303;SDS011;74469;52.520;16.998;2024-01-11T08:56:32;19.50;;;4.10;;
84303;SDS011;74469;52.520;16.998;2024-01-11T09:01:35;16.10;;;5.70;;
84303;SDS011;74469;52.520;16.998;2024-01-11T09:06:38;15.40;;;5.10;;
84303;SDS011;74469;52.520;16.998;2024-01-11T09:11:41;11.00;;;5.00;;
84303;SDS011;74469;52.520;16.998;2024-01-11T09:16:44;9.20;;;5.10;;
84303;SDS011;74469;52.520;16.998;2024-01-11T09:21:48;16.10;;;5.00;;
84303;SDS011;74469;52.520;16.998;2024-01-11T09:26:51;13.60;;;5.10;;
84303;SDS011;74469;52.520;16.998;2024-01-11T09:31:54;10.40;;;4.50;;
84303;SDS011;74469;52.520;16.998;2024-01-11T09:36:56;15.60;;;5.60;;
84303;SDS011;74469;52.520;16.998;2024-01-11T09:42:06;24.50;;;5.40;;
84303;SDS011;74469;52.520;16.998;2024-01-11T09:47:12;14.70;;;6.20;;
84303;SDS011;74469;52.520;16.998;2024-01-11T09:52:15;15.10;;;5.20;;
84303;SDS011;74469;52.520;16.998;2024-01-11T09:57:21;13.90;;;4.60;;
84303;SDS011;74469;52.520;16.998;2024-01-11T10:02:27;16.10;;;6.30;;
84303;SDS011;74469;52.520;16.998;2024-01-11T10:07:31;15.10;;;7.00;;
84303;SDS011;74469;52.520;16.998;2024-01-11T10:12:35;24.20;;;7.80;;
84303;SDS011;74469;52.520;16.998;2024-01-11T10:17:42;23.00;;;6.60;;
84303;SDS011;74469;52.520;16.998;2024-01-11T10:22:49;10.60;;;5.10;;
84303;SDS011;74469;52.520;16.998;2024-01-11T10:27:51;9.80;;;4.10;;
84303;SDS011;74469;52.520;16.998;2024-01-11T10:32:54;10.50;;;4.50;;
84303;SDS011;74469;52.520;16.998;2024-01-11T10:38:00;14.00;;;5.00;;
84303;SDS011;74469;52.520;16.998;2024-01-11T10:43:06;18.80;;;6.00;;
84303;SDS011;74469;52.520;16.998;2024-01-11T10:48:16;23.10;;;8.00;;
84303;SDS011;74469;52.520;16.998;2024-01-11T10:58:46;18.20;;;5.50;;
84303;SDS011;74469;52.520;16.998;2024-01-11T11:03:49;18.60;;;7.00;;
84303;SDS011;74469;52.520;16.998;2024-01-11T11:08:55;17.30;;;7.10;;
84303;SDS011;74469;52.520;16.998;2024-01-11T11:13:58;20.80;;;8.70;;
84303;SDS011;74469;52.520;16.998;2024-01-11T11:19:03;27.10;;;7.90;;
84303;SDS011;74469;52.520;16.998;2024-01-11T11:24:06;21.40;;;9.00;;
84303;SDS011;74469;52.520;16.998;2024-01-11T11:29:09;18.10;;;7.70;;
84303;SDS011;74469;52.520;16.998;2024-01-11T11:34:12;20.90;;;8.40;;
84303;SDS011;74469;52.520;16.998;2024-01-11T11:39:15;25.60;;;8.40;;
84303;SDS011;74469;52.520;16.998;2024-01-11T11:44:17;16.30;;;5.90;;
84303;SDS011;74469;52.520;16.998;2024-01-11T11:49:20;12.80;;;4.40;;
84303;SDS011;74469;52.520;16.998;2024-01-11T11:54:23;11.30;;;5.30;;
84303;SDS011;74469;52.520;16.998;2024-01-11T11:59:27;14.00;;;5.80;;
84303;SDS011;74469;52.520;16.998;2024-01-11T12:04:31;15.90;;;5.20;;
84303;SDS011;74469;52.520;16.998;2024-01-11T12:09:34;10.90;;;5.20;;
84303;SDS011;74469;52.520;16.998;2024-01-11T12:14:36;13.20;;;5.60;;
84303;SDS011;74469;52.520;16.998;2024-01-11T12:19:39;9.20;;;5.00;;
84303;SDS011;74469;52.520;16.998;2024-01-11T12:24:42;12.20;;;5.10;;
84303;SDS011;74469;52.520;16.998;2024-01-11T12:29:45;9.60;;;4.90;;
84303;SDS011;74469;52.520;16.998;2024-01-11T12:34:47;11.50;;;3.90;;
84303;SDS011;74469;52.520;16.998;2024-01-11T12:39:56;10.90;;;5.10;;
84303;SDS011;74469;52.520;16.998;2024-01-11T12:45:00;11.90;;;4.60;;
84303;SDS011;74469;52.520;16.998;2024-01-11T12:50:03;12.40;;;5.60;;
84303;SDS011;74469;52.520;16.998;2024-01-11T12:55:07;10.30;;;5.70;;
84303;SDS011;74469;52.520;16.998;2024-01-11T13:00:13;11.70;;;5.40;;
84303;SDS011;74469;52.520;16.998;2024-01-11T13:05:18;8.10;;;4.90;;
84303;SDS011;74469;52.520;16.998;2024-01-11T13:10:22;10.30;;;4.80;;
84303;SDS011;74469;52.520;16.998;2024-01-11T13:15:30;12.10;;;5.10;;
84303;SDS011;74469;52.520;16.998;2024-01-11T13:20:36;10.20;;;3.70;;
84303;SDS011;74469;52.520;16.998;2024-01-11T13:25:39;9.90;;;4.40;;
84303;SDS011;74469;52.520;16.998;2024-01-11T13:30:43;10.80;;;4.60;;
84303;SDS011;74469;52.520;16.998;2024-01-11T13:35:48;12.60;;;4.00;;
84303;SDS011;74469;52.520;16.998;2024-01-11T13:40:50;12.90;;;4.50;;
84303;SDS011;74469;52.520;16.998;2024-01-11T13:45:53;12.20;;;4.50;;
84303;SDS011;74469;52.520;16.998;2024-01-11T13:50:58;8.20;;;5.00;;
84303;SDS011;74469;52.520;16.998;2024-01-11T13:56:02;10.40;;;4.70;;
84303;SDS011;74469;52.520;16.998;2024-01-11T14:01:04;15.00;;;6.30;;
84303;SDS011;74469;52.520;16.998;2024-01-11T14:06:19;11.90;;;4.90;;
84303;SDS011;74469;52.520;16.998;2024-01-11T14:11:22;4.90;;;2.00;;
84303;SDS011;74469;52.520;16.998;2024-01-11T14:16:25;9.60;;;4.00;;
84303;SDS011;74469;52.520;16.998;2024-01-11T14:21:28;9.70;;;4.10;;
84303;SDS011;74469;52.520;16.998;2024-01-11T14:26:35;5.80;;;3.60;;
84303;SDS011;74469;52.520;16.998;2024-01-11T14:31:38;8.90;;;4.00;;
84303;SDS011;74469;52.520;16.998;2024-01-11T14:36:41;12.70;;;4.90;;
84303;SDS011;74469;52.520;16.998;2024-01-11T14:41:44;6.80;;;3.50;;
84303;SDS011;74469;52.520;16.998;2024-01-11T14:46:48;4.80;;;2.50;;
84303;SDS011;74469;52.520;16.998;2024-01-11T14:51:51;5.30;;;2.90;;
84303;SDS011;74469;52.520;16.998;2024-01-11T14:56:54;6.60;;;3.20;;
84303;SDS011;74469;52.520;16.998;2024-01-11T15:01:57;6.20;;;2.80;;
84303;SDS011;74469;52.520;16.998;2024-01-11T15:07:00;12.10;;;5.10;;
84303;SDS011;74469;52.520;16.998;2024-01-11T15:12:02;10.90;;;5.20;;
84303;SDS011;74469;52.520;16.998;2024-01-11T15:17:05;10.10;;;4.50;;
84303;SDS011;74469;52.520;16.998;2024-01-11T15:22:08;7.40;;;3.20;;
84303;SDS011;74469;52.520;16.998;2024-01-11T15:27:14;4.20;;;3.20;;
84303;SDS011;74469;52.520;16.998;2024-01-11T15:32:17;7.50;;;3.90;;
84303;SDS011;74469;52.520;16.998;2024-01-11T15:37:27;7.10;;;3.50;;
84303;SDS011;74469;52.520;16.998;2024-01-11T15:42:31;5.90;;;3.10;;
84303;SDS011;74469;52.520;16.998;2024-01-11T15:47:34;11.90;;;3.50;;
84303;SDS011;74469;52.520;16.998;2024-01-11T15:52:37;12.80;;;4.70;;
84303;SDS011;74469;52.520;16.998;2024-01-11T15:57:41;8.60;;;4.90;;
84303;SDS011;74469;52.520;16.998;2024-01-11T16:02:43;7.60;;;4.00;;
84303;SDS011;74469;52.520;16.998;2024-01-11T16:07:47;8.90;;;4.50;;
84303;SDS011;74469;52.520;16.998;2024-01-11T16:12:49;8.10;;;3.80;;
84303;SDS011;74469;52.520;16.998;2024-01-11T16:17:52;9.80;;;3.80;;
84303;SDS011;74469;52.520;16.998;2024-01-11T16:22:55;8.30;;;3.80;;
84303;SDS011;74469;52.520;16.998;2024-01-11T16:27:57;9.80;;;3.80;;
84303;SDS011;74469;52.520;16.998;2024-01-11T16:33:00;9.90;;;5.10;;
84303;SDS011;74469;52.520;16.998;2024-01-11T16:38:03;7.20;;;3.30;;
84303;SDS011;74469;52.520;16.998;2024-01-11T16:43:07;8.00;;;4.30;;
84303;SDS011;74469;52.520;16.998;2024-01-11T16:48:13;7.80;;;4.70;;
84303;SDS011;74469;52.520;16.998;2024-01-11T16:53:19;12.70;;;5.80;;
84303;SDS011;74469;52.520;16.998;2024-01-11T17:03:30;12.20;;;5.00;;
84303;SDS011;74469;52.520;16.998;2024-01-11T17:08:41;12.70;;;5.50;;
84303;SDS011;74469;52.520;16.998;2024-01-11T17:13:53;9.60;;;3.50;;
84303;SDS011;74469;52.520;16.998;2024-01-11T17:18:58;11.30;;;5.20;;
84303;SDS011;74469;52.520;16.998;2024-01-11T17:24:00;12.40;;;4.70;;
84303;SDS011;74469;52.520;16.998;2024-01-11T17:29:04;9.30;;;5.20;;
84303;SDS011;74469;52.520;16.998;2024-01-11T17:34:07;8.70;;;4.90;;
84303;SDS011;74469;52.520;16.998;2024-01-11T17:39:09;7.80;;;3.10;;
84303;SDS011;74469;52.520;16.998;2024-01-11T17:44:12;12.80;;;5.40;;
84303;SDS011;74469;52.520;16.998;2024-01-11T17:49:15;15.20;;;6.50;;
84303;SDS011;74469;52.520;16.998;2024-01-11T17:54:17;9.90;;;4.50;;
84303;SDS011;74469;52.520;16.998;2024-01-11T17:59:20;9.60;;;4.60;;
84303;SDS011;74469;52.520;16.998;2024-01-11T18:04:23;11.30;;;5.30;;
84303;SDS011;74469;52.520;16.998;2024-01-11T18:09:26;12.20;;;5.40;;
84303;SDS011;74469;52.520;16.998;2024-01-11T18:14:29;9.20;;;5.20;;
84303;SDS011;74469;52.520;16.998;2024-01-11T18:19:32;13.20;;;5.90;;
84303;SDS011;74469;52.520;16.998;2024-01-11T18:24:34;18.00;;;7.90;;
84303;SDS011;74469;52.520;16.998;2024-01-11T18:29:37;10.90;;;5.40;;
84303;SDS011;74469;52.520;16.998;2024-01-11T18:34:40;13.30;;;5.30;;
84303;SDS011;74469;52.520;16.998;2024-01-11T18:39:43;11.50;;;5.00;;
84303;SDS011;74469;52.520;16.998;2024-01-11T18:44:46;11.80;;;6.60;;
84303;SDS011;74469;52.520;16.998;2024-01-11T18:50:11;12.20;;;5.30;;
84303;SDS011;74469;52.520;16.998;2024-01-11T18:55:12;11.40;;;6.00;;
84303;SDS011;74469;52.520;16.998;2024-01-11T19:00:18;6.40;;;3.30;;
84303;SDS011;74469;52.520;16.998;2024-01-11T19:05:22;13.30;;;5.90;;
84303;SDS011;74469;52.520;16.998;2024-01-11T19:15:39;12.80;;;4.70;;
84303;SDS011;74469;52.520;16.998;2024-01-11T19:20:42;13.00;;;4.60;;
84303;SDS011;74469;52.520;16.998;2024-01-11T19:25:45;12.40;;;5.50;;
84303;SDS011;74469;52.520;16.998;2024-01-11T19:30:47;13.70;;;4.70;;
84303;SDS011;74469;52.520;16.998;2024-01-11T19:35:50;12.80;;;5.60;;
84303;SDS011;74469;52.520;16.998;2024-01-11T19:40:53;18.00;;;6.60;;
84303;SDS011;74469;52.520;16.998;2024-01-11T19:45:56;17.80;;;6.50;;
84303;SDS011;74469;52.520;16.998;2024-01-11T19:50:59;10.70;;;5.70;;
84303;SDS011;74469;52.520;16.998;2024-01-11T19:56:02;8.80;;;4.60;;
84303;SDS011;74469;52.520;16.998;2024-01-11T20:01:05;12.90;;;6.80;;
84303;SDS011;74469;52.520;16.998;2024-01-11T20:06:09;16.10;;;6.00;;
84303;SDS011;74469;52.520;16.998;2024-01-11T20:11:12;11.50;;;5.80;;
84303;SDS011;74469;52.520;16.998;2024-01-11T20:16:15;8.50;;;4.00;;
84303;SDS011;74469;52.520;16.998;2024-01-11T20:21:17;13.00;;;5.40;;
84303;SDS011;74469;52.520;16.998;2024-01-11T20:26:20;12.10;;;5.50;;
84303;SDS011;74469;52.520;16.998;2024-01-11T20:31:25;10.10;;;5.90;;
84303;SDS011;74469;52.520;16.998;2024-01-11T20:36:29;15.00;;;5.80;;
84303;SDS011;74469;52.520;16.998;2024-01-11T20:41:32;8.40;;;4.60;;
84303;SDS011;74469;52.520;16.998;2024-01-11T20:46:34;5.90;;;4.00;;
84303;SDS011;74469;52.520;16.998;2024-01-11T20:51:43;14.30;;;5.10;;
84303;SDS011;74469;52.520;16.998;2024-01-11T20:56:46;13.70;;;8.10;;
84303;SDS011;74469;52.520;16.998;2024-01-11T21:01:48;9.50;;;5.30;;
84303;SDS011;74469;52.520;16.998;2024-01-11T21:06:51;11.10;;;5.60;;
84303;SDS011;74469;52.520;16.998;2024-01-11T21:11:54;11.10;;;4.70;;
84303;SDS011;74469;52.520;16.998;2024-01-11T21:16:57;14.40;;;7.40;;
84303;SDS011;74469;52.520;16.998;2024-01-11T21:22:00;7.80;;;4.30;;
84303;SDS011;74469;52.520;16.998;2024-01-11T21:27:03;13.20;;;6.20;;
84303;SDS011;74469;52.520;16.998;2024-01-11T21:32:05;10.90;;;6.60;;
84303;SDS011;74469;52.520;16.998;2024-01-11T21:37:08;10.90;;;5.10;;
84303;SDS011;74469;52.520;16.998;2024-01-11T21:42:11;10.20;;;4.70;;
84303;SDS011;74469;52.520;16.998;2024-01-11T21:47:14;17.10;;;6.50;;
84303;SDS011;74469;52.520;16.998;2024-01-11T21:52:16;12.00;;;5.10;;
84303;SDS011;74469;52.520;16.998;2024-01-11T21:57:19;10.30;;;5.20;;
84303;SDS011;74469;52.520;16.998;2024-01-11T22:02:22;11.70;;;4.90;;
84303;SDS011;74469;52.520;16.998;2024-01-11T22:07:25;19.90;;;8.10;;
84303;SDS011;74469;52.520;16.998;2024-01-11T22:12:28;18.20;;;8.80;;
84303;SDS011;74469;52.520;16.998;2024-01-11T22:17:30;8.40;;;4.40;;
84303;SDS011;74469;52.520;16.998;2024-01-11T22:22:36;12.40;;;4.80;;
84303;SDS011;74469;52.520;16.998;2024-01-11T22:27:39;14.00;;;5.60;;
84303;SDS011;74469;52.520;16.998;2024-01-11T22:32:42;11.20;;;4.60;;
84303;SDS011;74469;52.520;16.998;2024-01-11T22:37:48;10.40;;;4.60;;
84303;SDS011;74469;52.520;16.998;2024-01-11T22:42:51;14.30;;;6.90;;
84303;SDS011;74469;52.520;16.998;2024-01-11T22:47:54;12.00;;;6.20;;
84303;SDS011;74469;52.520;16.998;2024-01-11T22:52:57;5.70;;;3.70;;
84303;SDS011;74469;52.520;16.998;2024-01-11T22:58:11;8.10;;;4.40;;
84303;SDS011;74469;52.520;16.998;2024-01-11T23:03:16;10.30;;;4.40;;
84303;SDS011;74469;52.520;16.998;2024-01-11T23:08:19;11.50;;;6.30;;
84303;SDS011;74469;52.520;16.998;2024-01-11T23:13:22;14.30;;;5.90;;
84303;SDS011;74469;52.520;16.998;2024-01-11T23:18:25;13.50;;;5.50;;
84303;SDS011;74469;52.520;16.998;2024-01-11T23:23:30;7.20;;;3.40;;
84303;SDS011;74469;52.520;16.998;2024-01-11T23:28:33;5.40;;;3.00;;
84303;SDS011;74469;52.520;16.998;2024-01-11T23:33:39;8.50;;;4.10;;
84303;SDS011;74469;52.520;16.998;2024-01-11T23:38:42;10.90;;;5.60;;
84303;SDS011;74469;52.520;16.998;2024-01-11T23:43:45;17.00;;;6.70;;
84303;SDS011;74469;52.520;16.998;2024-01-11T23:48:48;13.20;;;6.30;;
84303;SDS011;74469;52.520;16.998;2024-01-11T23:53:50;8.50;;;4.70;;
84303;SDS011;74469;52.520;16.998;2024-01-11T23:58:53;8.10;;;3.70;;
